createdAt,value
2023-01-07T00:01:47.341Z,3.90
2023-01-07T00:04:17.220Z,3.93
2023-01-07T00:06:47.578Z,4.07
2023-01-07T00:09:18.838Z,3.67
2023-01-07T00:11:48.030Z,2.97
2023-01-07T00:14:17.024Z,2.87
2023-01-07T00:16:45.444Z,3.07
2023-01-07T00:19:15.458Z,6.20
2023-01-07T00:21:44.139Z,7.63
2023-01-07T00:24:13.405Z,7.73
2023-01-07T00:26:43.546Z,6.40
2023-01-07T00:29:12.494Z,5.20
2023-01-07T00:31:41.819Z,6.57
2023-01-07T00:34:13.269Z,6.83
2023-01-07T00:36:43.979Z,7.00
2023-01-07T00:39:16.510Z,7.10
2023-01-07T00:42:07.877Z,6.83
2023-01-07T00:44:38.108Z,13.07
2023-01-07T00:47:06.890Z,10.17
2023-01-07T00:49:35.744Z,10.30
2023-01-07T00:52:04.570Z,10.57
2023-01-07T00:54:33.332Z,11.33
2023-01-07T00:57:03.344Z,9.87
2023-01-07T00:59:31.882Z,10.00
2023-01-07T01:02:01.850Z,10.27
2023-01-07T01:04:30.643Z,8.60
2023-01-07T01:06:59.042Z,9.23
2023-01-07T01:09:28.701Z,8.20
2023-01-07T01:11:57.617Z,9.00
2023-01-07T01:14:27.543Z,7.90
2023-01-07T01:16:56.326Z,7.10
2023-01-07T01:19:24.950Z,7.40
2023-01-07T01:21:53.373Z,7.40
2023-01-07T01:24:22.587Z,7.43
2023-01-07T01:26:51.219Z,7.20
2023-01-07T01:29:19.826Z,6.90
2023-01-07T01:31:50.514Z,7.30
2023-01-07T01:34:19.673Z,7.07
2023-01-07T01:36:48.400Z,7.30
2023-01-07T01:39:16.936Z,6.17
2023-01-07T01:41:45.479Z,6.97
2023-01-07T01:44:40.693Z,7.03
2023-01-07T01:47:17.610Z,7.30
2023-01-07T01:49:49.897Z,7.33
2023-01-07T01:52:21.166Z,7.80
2023-01-07T01:54:52.396Z,6.13
2023-01-07T01:57:21.739Z,6.53
2023-01-07T01:59:51.629Z,6.97
2023-01-07T02:02:24.991Z,6.97
2023-01-07T02:04:54.644Z,7.00
2023-01-07T02:07:23.098Z,6.93
2023-01-07T02:09:58.615Z,6.30
2023-01-07T02:12:36.554Z,6.83
2023-01-07T02:15:12.152Z,7.50
2023-01-07T02:17:52.431Z,7.30
2023-01-07T02:20:29.143Z,8.17
2023-01-07T02:23:52.892Z,7.63
2023-01-07T02:26:51.054Z,8.50
2023-01-07T02:30:13.681Z,8.13
2023-01-07T02:33:06.518Z,9.83
2023-01-07T02:35:47.092Z,7.03
2023-01-07T02:38:25.273Z,8.20
2023-01-07T02:41:01.218Z,6.93
2023-01-07T02:43:38.369Z,6.57
2023-01-07T02:46:11.579Z,7.80
2023-01-07T02:48:42.203Z,6.60
2023-01-07T02:51:10.992Z,6.80
2023-01-07T02:53:40.613Z,6.87
2023-01-07T02:56:18.377Z,8.03
2023-01-07T02:59:13.878Z,6.10
2023-01-07T03:01:59.224Z,7.10
2023-01-07T03:04:39.045Z,6.87
2023-01-07T03:07:25.795Z,6.50
2023-01-07T03:10:00.740Z,6.30
2023-01-07T03:12:33.753Z,6.73
2023-01-07T03:15:09.464Z,7.30
2023-01-07T03:17:41.837Z,5.97
2023-01-07T03:20:12.986Z,6.23
2023-01-07T03:22:43.009Z,7.00
2023-01-07T03:25:12.918Z,6.03
2023-01-07T03:27:43.284Z,6.47
2023-01-07T03:30:15.536Z,8.00
2023-01-07T03:32:47.573Z,6.47
2023-01-07T03:35:19.054Z,8.73
2023-01-07T03:37:48.893Z,9.87
2023-01-07T03:40:19.183Z,9.43
2023-01-07T03:42:49.199Z,9.60
2023-01-07T03:45:19.680Z,8.50
2023-01-07T03:47:50.223Z,7.00
2023-01-07T03:50:20.678Z,7.57
2023-01-07T03:52:49.728Z,6.60
2023-01-07T03:55:18.619Z,5.90
2023-01-07T03:57:47.347Z,6.40
2023-01-07T04:00:17.581Z,5.93
2023-01-07T04:02:47.131Z,5.77
2023-01-07T04:05:16.052Z,5.40
2023-01-07T04:07:46.080Z,5.80
2023-01-07T04:10:14.830Z,6.10
2023-01-07T04:12:43.356Z,6.40
2023-01-07T04:15:12.674Z,5.63
2023-01-07T04:17:41.053Z,4.80
2023-01-07T04:20:10.984Z,4.60
2023-01-07T04:22:39.556Z,4.33
2023-01-07T04:25:10.177Z,5.13
2023-01-07T04:27:38.933Z,3.80
2023-01-07T04:30:08.684Z,9.30
2023-01-07T04:32:37.415Z,6.40
2023-01-07T04:35:06.464Z,8.20
2023-01-07T04:37:35.239Z,6.23
2023-01-07T04:40:04.451Z,5.77
2023-01-07T04:42:34.853Z,5.23
2023-01-07T04:45:24.011Z,5.20
2023-01-07T04:47:54.742Z,5.40
2023-01-07T04:50:23.651Z,4.30
2023-01-07T04:52:52.160Z,4.60
2023-01-07T04:55:20.939Z,6.40
2023-01-07T04:58:18.111Z,4.63
2023-01-07T05:00:47.448Z,4.80
2023-01-07T05:03:21.461Z,4.53
2023-01-07T05:06:00.629Z,4.87
2023-01-07T05:08:29.276Z,4.57
2023-01-07T05:10:57.776Z,4.43
2023-01-07T05:13:28.074Z,4.10
2023-01-07T05:15:56.517Z,4.67
2023-01-07T05:18:25.452Z,5.63
2023-01-07T05:20:54.105Z,5.50
2023-01-07T05:23:22.476Z,5.40
2023-01-07T05:25:51.030Z,5.70
2023-01-07T05:28:19.549Z,4.93
2023-01-07T05:30:50.116Z,4.10
2023-01-07T05:33:18.672Z,5.00
2023-01-07T05:35:49.924Z,4.70
2023-01-07T05:38:20.839Z,3.43
2023-01-07T05:40:50.058Z,3.80
2023-01-07T05:43:19.091Z,2.93
2023-01-07T05:45:48.090Z,2.93
2023-01-07T05:48:18.686Z,2.97
2023-01-07T05:50:47.113Z,3.90
2023-01-07T05:53:16.121Z,3.93
2023-01-07T05:55:45.145Z,3.70
2023-01-07T05:58:13.967Z,3.30
2023-01-07T06:00:43.239Z,3.07
2023-01-07T06:03:12.417Z,2.53
2023-01-07T06:05:42.433Z,2.70
2023-01-07T06:08:10.941Z,2.30
2023-01-07T06:10:40.443Z,3.10
2023-01-07T06:13:08.943Z,3.07
2023-01-07T06:15:37.657Z,3.03
2023-01-07T06:21:33.365Z,2.70
2023-01-07T06:24:02.136Z,2.23
2023-01-07T06:26:31.005Z,2.53
2023-01-07T06:28:59.388Z,2.43
2023-01-07T06:31:28.209Z,2.60
2023-01-07T06:33:56.616Z,2.10
2023-01-07T06:36:26.583Z,2.00
2023-01-07T06:38:56.456Z,2.13
2023-01-07T06:41:25.108Z,1.93
2023-01-07T06:43:53.457Z,2.90
2023-01-07T06:46:22.552Z,1.90
2023-01-07T06:48:51.040Z,1.80
2023-01-07T06:51:19.739Z,1.40
2023-01-07T06:53:48.379Z,2.50
2023-01-07T06:56:18.529Z,3.40
2023-01-07T06:58:48.424Z,2.50
2023-01-07T07:01:17.551Z,2.30
2023-01-07T07:03:45.986Z,2.13
2023-01-07T07:06:14.479Z,2.97
2023-01-07T07:08:43.530Z,3.67
2023-01-07T07:11:12.498Z,2.97
2023-01-07T07:13:42.586Z,3.40
2023-01-07T07:16:12.957Z,3.40
2023-01-07T07:18:41.613Z,3.50
2023-01-07T07:21:10.978Z,2.83
2023-01-07T07:23:39.441Z,3.07
2023-01-07T07:26:08.292Z,2.33
2023-01-07T07:28:36.812Z,2.40
2023-01-07T07:31:07.349Z,3.40
2023-01-07T07:33:36.119Z,5.20
2023-01-07T07:36:05.519Z,8.10
2023-01-07T07:38:33.832Z,9.80
2023-01-07T07:41:02.702Z,8.57
2023-01-07T07:43:31.534Z,11.77
2023-01-07T07:46:00.123Z,9.53
2023-01-07T07:48:30.296Z,10.90
2023-01-07T07:51:01.593Z,9.80
2023-01-07T07:53:30.301Z,10.27
2023-01-07T07:55:59.267Z,9.60
2023-01-07T07:58:27.928Z,9.00
2023-01-07T08:00:57.957Z,9.57
2023-01-07T08:03:26.566Z,9.77
2023-01-07T08:05:56.419Z,7.90
2023-01-07T08:08:25.223Z,8.73
2023-01-07T08:10:56.433Z,10.10
2023-01-07T08:13:32.051Z,9.60
2023-01-07T08:16:00.971Z,9.97
2023-01-07T08:18:29.796Z,12.30
2023-01-07T08:21:00.050Z,10.07
2023-01-07T08:23:30.341Z,8.37
2023-01-07T08:26:01.641Z,8.33
2023-01-07T08:28:30.359Z,8.80
2023-01-07T08:30:59.253Z,8.43
2023-01-07T08:33:28.070Z,8.03
2023-01-07T08:36:09.372Z,7.90
2023-01-07T08:38:38.449Z,9.30
2023-01-07T08:41:07.459Z,16.07
2023-01-07T08:43:36.606Z,15.50
2023-01-07T08:46:05.452Z,15.10
2023-01-07T08:48:34.096Z,14.40
2023-01-07T08:51:02.823Z,14.70
2023-01-07T08:53:32.745Z,12.77
2023-01-07T08:56:01.467Z,10.77
2023-01-07T08:58:30.148Z,10.67
2023-01-07T09:01:03.196Z,9.03
2023-01-07T09:06:17.126Z,5.40
2023-01-07T09:08:47.095Z,4.90
2023-01-07T09:11:15.781Z,3.90
2023-01-07T09:13:44.197Z,3.83
2023-01-07T09:16:12.695Z,4.17
2023-01-07T09:18:41.426Z,7.03
2023-01-07T09:21:10.020Z,8.17
2023-01-07T09:23:39.016Z,7.20
2023-01-07T09:26:09.731Z,5.00
2023-01-07T09:28:38.751Z,3.40
2023-01-07T09:31:10.223Z,3.77
2023-01-07T09:33:43.127Z,2.00
2023-01-07T09:36:11.865Z,3.00
2023-01-07T09:38:40.437Z,2.30
2023-01-07T09:41:20.828Z,1.60
2023-01-07T09:44:01.155Z,1.63
2023-01-07T09:46:31.257Z,1.47
2023-01-07T09:49:04.019Z,1.30
2023-01-07T09:51:36.655Z,1.37
2023-01-07T09:54:07.059Z,1.00
2023-01-07T09:56:38.692Z,0.80
2023-01-07T09:59:08.728Z,0.70
2023-01-07T10:01:47.933Z,0.97
2023-01-07T10:04:27.100Z,1.40
2023-01-07T10:07:03.046Z,2.10
2023-01-07T10:09:39.324Z,1.30
2023-01-07T10:12:17.417Z,1.30
2023-01-07T10:15:32.212Z,1.47
2023-01-07T10:18:23.259Z,0.70
2023-01-07T10:20:57.201Z,1.27
2023-01-07T10:23:28.940Z,1.03
2023-01-07T10:25:58.764Z,1.50
2023-01-07T10:28:38.431Z,2.57
2023-01-07T10:31:08.162Z,4.23
2023-01-07T10:33:36.990Z,4.87
2023-01-07T10:36:15.058Z,23.03
2023-01-07T10:38:45.033Z,8.07
2023-01-07T10:41:17.626Z,8.83
2023-01-07T10:48:15.228Z,10.00
2023-01-07T10:50:53.661Z,17.27
2023-01-07T10:53:32.391Z,12.40
2023-01-07T10:56:09.128Z,5.83
2023-01-07T10:58:41.231Z,4.83
2023-01-07T11:01:15.462Z,4.50
2023-01-07T11:03:44.322Z,1.73
2023-01-07T11:06:14.623Z,1.60
2023-01-07T11:08:44.151Z,1.90
2023-01-07T11:11:16.550Z,2.50
2023-01-07T11:13:55.253Z,2.30
2023-01-07T11:16:28.075Z,1.80
2023-01-07T11:19:00.267Z,1.57
2023-01-07T11:21:42.685Z,6.30
2023-01-07T11:25:26.273Z,1.53
2023-01-07T11:27:57.082Z,4.70
2023-01-07T11:30:28.295Z,5.50
2023-01-07T11:33:02.112Z,3.93
2023-01-07T11:35:30.816Z,2.20
2023-01-07T11:38:00.822Z,6.73
2023-01-07T11:40:31.240Z,4.90
2023-01-07T11:43:01.823Z,2.47
2023-01-07T11:45:35.338Z,2.60
2023-01-07T11:48:10.840Z,1.10
2023-01-07T11:50:43.474Z,1.90
2023-01-07T11:53:28.292Z,1.10
2023-01-07T11:56:00.755Z,1.40
2023-01-07T11:58:31.410Z,1.30
2023-01-07T12:01:28.773Z,8.77
2023-01-07T12:04:21.628Z,2.87
2023-01-07T12:06:51.715Z,6.97
2023-01-07T12:09:25.668Z,7.43
2023-01-07T12:11:56.117Z,3.27
2023-01-07T12:14:27.653Z,1.57
2023-01-07T12:16:58.069Z,1.50
2023-01-07T12:19:37.720Z,1.10
2023-01-07T12:22:20.878Z,1.27
2023-01-07T12:25:27.678Z,1.10
2023-01-07T12:28:06.614Z,1.43
2023-01-07T12:31:02.113Z,1.63
2023-01-07T12:33:40.963Z,1.30
2023-01-07T12:36:14.823Z,1.80
2023-01-07T12:38:46.685Z,1.00
2023-01-07T12:41:20.034Z,2.33
2023-01-07T12:44:00.534Z,1.20
2023-01-07T12:46:35.032Z,4.07
2023-01-07T12:49:15.731Z,3.10
2023-01-07T12:51:49.549Z,2.07
2023-01-07T12:54:20.979Z,2.73
2023-01-07T12:56:54.575Z,1.50
2023-01-07T12:59:46.064Z,1.97
2023-01-07T13:02:23.785Z,3.30
2023-01-07T13:04:59.925Z,3.90
2023-01-07T13:07:39.444Z,2.90
2023-01-07T13:10:14.716Z,2.13
2023-01-07T13:12:49.096Z,2.07
2023-01-07T13:15:29.175Z,1.67
2023-01-07T13:17:59.356Z,2.50
2023-01-07T13:20:44.242Z,3.27
2023-01-07T13:23:21.066Z,2.03
2023-01-07T13:25:59.383Z,1.90
2023-01-07T13:28:49.074Z,2.77
2023-01-07T13:31:31.930Z,2.10
2023-01-07T13:34:10.017Z,1.80
2023-01-07T13:36:46.126Z,1.70
2023-01-07T13:39:40.108Z,2.00
2023-01-07T13:42:18.426Z,2.10
2023-01-07T13:44:59.239Z,1.60
2023-01-07T13:47:35.354Z,1.40
2023-01-07T13:50:05.134Z,1.80
2023-01-07T13:52:35.170Z,1.90
2023-01-07T13:55:38.901Z,2.20
2023-01-07T13:58:41.534Z,2.00
2023-01-07T14:01:11.254Z,3.57
2023-01-07T14:03:44.625Z,3.50
2023-01-07T14:06:50.767Z,2.80
2023-01-07T14:09:40.288Z,2.53
2023-01-07T14:12:39.086Z,2.30
2023-01-07T14:15:43.988Z,2.77
2023-01-07T14:18:46.540Z,2.53
2023-01-07T14:21:41.708Z,1.90
2023-01-07T14:24:28.087Z,1.93
2023-01-07T14:27:00.979Z,2.33
2023-01-07T14:29:44.528Z,2.30
2023-01-07T14:32:31.751Z,3.17
2023-01-07T14:35:03.025Z,3.33
2023-01-07T14:37:37.333Z,3.30
2023-01-07T14:40:43.467Z,3.10
2023-01-07T14:43:45.828Z,3.10
2023-01-07T14:46:46.642Z,2.90
2023-01-07T14:49:47.805Z,3.20
2023-01-07T14:52:27.420Z,3.93
2023-01-07T14:55:24.301Z,4.37
2023-01-07T14:58:03.642Z,3.83
2023-01-07T15:01:02.117Z,2.47
2023-01-07T15:03:56.067Z,2.60
2023-01-07T15:06:29.471Z,4.87
2023-01-07T15:09:21.690Z,5.13
2023-01-07T15:15:55.488Z,5.17
2023-01-07T15:18:51.686Z,4.10
2023-01-07T15:21:57.565Z,5.10
2023-01-07T15:24:33.211Z,4.53
2023-01-07T15:27:07.706Z,6.63
2023-01-07T15:29:42.623Z,20.47
2023-01-07T15:32:21.951Z,15.10
2023-01-07T15:34:51.978Z,32.50
2023-01-07T15:37:20.757Z,15.60
2023-01-07T15:39:56.240Z,4.50
2023-01-07T15:42:25.696Z,3.00
2023-01-07T15:44:55.391Z,2.17
2023-01-07T15:47:36.433Z,1.33
2023-01-07T15:50:37.775Z,1.80
2023-01-07T15:53:19.607Z,21.97
2023-01-07T15:55:54.609Z,29.60
2023-01-07T15:58:30.131Z,26.57
2023-01-07T16:00:59.792Z,16.20
2023-01-07T16:03:28.863Z,6.33
2023-01-07T16:06:00.009Z,4.40
2023-01-07T16:08:30.689Z,2.80
2023-01-07T16:11:01.471Z,2.40
2023-01-07T16:13:32.975Z,2.83
2023-01-07T16:16:03.756Z,2.67
2023-01-07T16:18:33.842Z,2.50
2023-01-07T16:21:05.377Z,2.43
2023-01-07T16:23:34.976Z,2.27
2023-01-07T16:26:08.658Z,1.60
2023-01-07T16:28:40.924Z,1.50
2023-01-07T16:31:13.827Z,1.90
2023-01-07T16:33:43.771Z,2.13
2023-01-07T16:36:16.527Z,2.27
2023-01-07T16:38:45.566Z,3.03
2023-01-07T16:41:22.972Z,5.00
2023-01-07T16:43:52.720Z,4.47
2023-01-07T16:46:26.986Z,2.50
2023-01-07T16:49:23.391Z,2.10
2023-01-07T16:51:54.161Z,2.53
2023-01-07T16:54:34.477Z,2.03
2023-01-07T16:59:49.788Z,4.10
2023-01-07T17:02:31.332Z,9.63
2023-01-07T17:05:13.457Z,4.70
2023-01-07T17:07:47.832Z,2.53
2023-01-07T17:10:24.443Z,2.20
2023-01-07T17:12:58.781Z,1.87
2023-01-07T17:15:37.523Z,2.23
2023-01-07T17:18:28.920Z,2.80
2023-01-07T17:20:59.595Z,2.73
2023-01-07T17:23:45.788Z,2.83
2023-01-07T17:26:19.246Z,2.77
2023-01-07T17:28:49.768Z,2.33
2023-01-07T17:31:18.386Z,1.70
2023-01-07T17:33:49.825Z,1.80
2023-01-07T17:36:19.744Z,1.73
2023-01-07T17:38:50.383Z,2.70
2023-01-07T17:41:37.421Z,2.80
2023-01-07T17:44:07.033Z,3.90
2023-01-07T17:46:35.540Z,4.97
2023-01-07T17:49:04.126Z,4.00
2023-01-07T17:51:34.818Z,2.60
2023-01-07T17:54:07.049Z,2.83
2023-01-07T17:56:36.203Z,3.80
2023-01-07T17:59:04.967Z,2.97
2023-01-07T18:01:33.722Z,5.93
2023-01-07T18:04:02.425Z,6.73
2023-01-07T18:06:35.049Z,3.47
2023-01-07T18:09:08.669Z,4.40
2023-01-07T18:11:56.681Z,4.23
2023-01-07T18:14:27.523Z,3.70
2023-01-07T18:16:59.169Z,4.80
2023-01-07T18:19:27.825Z,4.30
2023-01-07T18:21:56.218Z,4.37
2023-01-07T18:24:26.539Z,4.10
2023-01-07T18:26:56.530Z,4.70
2023-01-07T18:29:25.327Z,3.97
2023-01-07T18:31:54.455Z,4.20
2023-01-07T18:34:23.256Z,4.00
2023-01-07T18:36:51.905Z,3.53
2023-01-07T18:39:21.387Z,3.30
2023-01-07T18:41:51.824Z,4.17
2023-01-07T18:44:22.016Z,4.10
2023-01-07T18:46:50.977Z,3.90
2023-01-07T18:49:19.681Z,4.60
2023-01-07T18:51:48.829Z,4.20
2023-01-07T18:54:17.858Z,5.33
2023-01-07T18:56:47.146Z,5.30
2023-01-07T18:59:17.435Z,5.70
2023-01-07T19:01:46.121Z,5.70
2023-01-07T19:04:15.346Z,5.10
2023-01-07T19:06:44.320Z,4.50
2023-01-07T19:09:13.277Z,5.23
2023-01-07T19:11:44.229Z,4.50
2023-01-07T19:14:13.204Z,5.80
2023-01-07T19:16:43.694Z,7.40
2023-01-07T19:19:12.470Z,7.83
2023-01-07T19:21:42.127Z,6.73
2023-01-07T19:24:10.879Z,5.83
2023-01-07T19:26:42.457Z,6.10
2023-01-07T19:29:13.909Z,4.93
2023-01-07T19:31:45.800Z,5.50
2023-01-07T19:34:15.202Z,6.13
2023-01-07T19:36:47.501Z,4.27
2023-01-07T19:39:17.616Z,7.67
2023-01-07T19:41:46.834Z,7.20
2023-01-07T19:44:16.366Z,7.37
2023-01-07T19:46:47.631Z,7.07
2023-01-07T19:49:18.374Z,8.60
2023-01-07T19:51:52.382Z,9.33
2023-01-07T19:54:21.545Z,10.20
2023-01-07T19:56:50.394Z,8.37
2023-01-07T19:59:19.199Z,8.63
2023-01-07T20:01:50.207Z,9.13
2023-01-07T20:04:20.246Z,8.33
2023-01-07T20:06:50.753Z,7.80
2023-01-07T20:09:21.715Z,7.33
2023-01-07T20:11:50.255Z,8.87
2023-01-07T20:14:19.374Z,9.40
2023-01-07T20:16:50.234Z,9.73
2023-01-07T20:19:23.587Z,10.80
2023-01-07T20:21:52.089Z,13.07
2023-01-07T20:24:20.965Z,11.90
2023-01-07T20:26:49.445Z,12.07
2023-01-07T20:29:19.026Z,11.13
2023-01-07T20:31:47.801Z,10.00
2023-01-07T20:34:18.482Z,10.80
2023-01-07T20:36:47.374Z,10.10
2023-01-07T20:39:15.887Z,8.23
2023-01-07T20:41:44.785Z,6.40
2023-01-07T20:44:13.682Z,7.73
2023-01-07T20:46:42.466Z,6.33
2023-01-07T20:49:11.997Z,8.10
2023-01-07T20:51:43.619Z,5.40
2023-01-07T20:54:13.605Z,5.33
2023-01-07T20:56:42.592Z,5.90
2023-01-07T20:59:11.745Z,5.23
2023-01-07T21:01:41.272Z,5.53
2023-01-07T21:04:10.643Z,5.80
2023-01-07T21:06:39.793Z,6.33
2023-01-07T21:09:11.865Z,5.90
2023-01-07T21:11:40.960Z,8.30
2023-01-07T21:14:09.522Z,7.20
2023-01-07T21:16:38.376Z,10.73
2023-01-07T21:19:07.494Z,10.20
2023-01-07T21:21:35.994Z,8.70
2023-01-07T21:24:04.717Z,7.10
2023-01-07T21:26:34.855Z,7.77
2023-01-07T21:29:03.596Z,6.57
2023-01-07T21:31:32.440Z,7.10
2023-01-07T21:34:01.139Z,7.10
2023-01-07T21:36:30.031Z,9.80
2023-01-07T21:39:00.154Z,7.00
2023-01-07T21:41:29.898Z,6.63
2023-01-07T21:44:00.571Z,7.00
2023-01-07T21:46:29.640Z,7.40
2023-01-07T21:48:59.367Z,6.00
2023-01-07T21:51:34.396Z,5.90
2023-01-07T21:54:03.364Z,7.63
2023-01-07T21:56:35.200Z,6.00
2023-01-07T21:59:05.875Z,5.60
2023-01-07T22:01:35.096Z,4.50
2023-01-07T22:04:04.567Z,4.30
2023-01-07T22:06:35.222Z,4.23
2023-01-07T22:09:05.521Z,5.80
2023-01-07T22:11:46.642Z,5.20
2023-01-07T22:14:18.864Z,6.00
2023-01-07T22:16:49.256Z,6.23
2023-01-07T22:19:18.400Z,6.50
2023-01-07T22:21:46.875Z,6.67
2023-01-07T22:24:15.829Z,7.70
2023-01-07T22:26:46.716Z,7.40
2023-01-07T22:29:18.904Z,7.17
2023-01-07T22:31:52.527Z,7.10
2023-01-07T22:34:22.523Z,7.27
2023-01-07T22:36:54.695Z,6.40
2023-01-07T22:39:27.101Z,6.20
2023-01-07T22:42:00.753Z,6.87
2023-01-07T22:44:36.160Z,5.70
2023-01-07T22:47:06.514Z,4.83
2023-01-07T22:49:35.295Z,5.50
2023-01-07T22:52:04.401Z,5.20
2023-01-07T22:54:33.412Z,6.60
2023-01-07T22:57:02.299Z,7.67
2023-01-07T22:59:32.280Z,8.10
2023-01-07T23:02:00.945Z,7.50
2023-01-07T23:04:30.195Z,8.97
2023-01-07T23:06:59.364Z,7.80
2023-01-07T23:09:32.204Z,7.13
2023-01-07T23:12:01.081Z,6.43
2023-01-07T23:14:32.655Z,7.00
2023-01-07T23:17:01.434Z,5.83
2023-01-07T23:19:32.097Z,5.90
2023-01-07T23:22:00.888Z,4.50
2023-01-07T23:24:29.532Z,4.33
2023-01-07T23:27:02.178Z,6.50
2023-01-07T23:29:30.652Z,6.07
2023-01-07T23:32:01.170Z,5.67
2023-01-07T23:34:30.029Z,5.70
2023-01-07T23:36:58.757Z,4.70
2023-01-07T23:39:27.579Z,3.50
2023-01-07T23:41:56.057Z,3.70
2023-01-07T23:44:24.590Z,4.00
2023-01-07T23:46:53.656Z,3.20
2023-01-07T23:49:23.875Z,3.47
2023-01-07T23:51:52.737Z,3.30
2023-01-07T23:54:24.560Z,2.97
2023-01-07T23:56:58.776Z,3.43
2023-01-07T23:59:27.764Z,3.17
